Terminal Aerodrome Forecast
Issued by NWS

Home | Current Version | Previous Version | Text Only | Print | Product List | Glossary On
Versions: 1 2 3 4 5 6 7 8 9 10 11 12 13
000
FTUS42 TJSJ 062300
TAFKPK
TAF
TKPK 062340Z 0700/0724 07011KT P6SM FEW020
     FM071300 07015G23KT P6SM FEW022
     FM072300 07015KT P6SM SCT018
      AMD NOT SKED 0702/0711=

USA.gov is the U.S. government's official web portal to all federal, state and local government web resources and services.